Terminal Aerodrome Forecast
Issued by NWS

Home | Current Version | Previous Version | Text Only | Print | Product List | Glossary On
Versions: 1 2 3 4 5 6 7 8 9 10 11 12 13
000
FTUS42 KTBW 161139
TAFRSW
TAF
KRSW 161139Z 1612/1712 04008KT P6SM FEW250
     FM161500 06011KT P6SM SCT050 SCT250
     FM170200 04005KT P6SM SCT060 SCT250=

USA.gov is the U.S. government's official web portal to all federal, state and local government web resources and services.